Time;durP1;ratioP1;P1;durP2;ratioP2;P2;SDS_P1;SDS_P2;PMS_P1;PMS_P2;Temp;Humidity;BMP_temperature;BMP_pressure;BME280_temperature;BME280_humidity;BME280_pressure;Samples;Min_cycle;Max_cycle;Signal;HPM_P1;HPM_P2
2023/06/23 00:02:16;;;;;;;;;;;16.60;94.30;;;;;;5094429;28;19924;-80
2023/06/23 00:04:41;;;;;;;;;;;16.60;94.20;;;;;;5115540;28;20406;-78
2023/06/23 00:07:07;;;;;;;;;;;16.60;94.10;;;;;;5094255;28;19911;-79
2023/06/23 00:09:32;;;;;;;;;;;16.60;94.00;;;;;;5116011;28;19908;-79
2023/06/23 00:11:58;;;;;;;;;;;16.50;94.00;;;;;;5116640;28;19907;-81
2023/06/23 00:14:23;;;;;;;;;;;16.50;94.00;;;;;;5106591;28;20304;-80
2023/06/23 00:16:50;;;;;;;;;;;16.50;94.00;;;;;;5093781;28;19912;-79
2023/06/23 00:19:16;;;;;;;;;;;16.50;94.20;;;;;;5115848;28;19920;-80
2023/06/23 00:21:44;;;;;;;;;;;16.60;94.40;;;;;;5112218;28;19933;-79
2023/06/23 00:24:10;;;;;;;;;;;16.50;94.40;;;;;;5114095;28;19908;-81
2023/06/23 00:26:37;;;;;;;;;;;16.60;94.20;;;;;;5115151;28;19908;-81
2023/06/23 00:29:04;;;;;;;;;;;16.60;94.00;;;;;;5111891;28;19924;-83
2023/06/23 00:31:30;;;;;;;;;;;16.60;94.00;;;;;;5095972;28;20268;-80
2023/06/23 00:33:56;;;;;;;;;;;16.60;94.00;;;;;;5096155;28;19915;-78
2023/06/23 00:36:21;;;;;;;;;;;16.60;94.00;;;;;;5095637;28;19912;-79
2023/06/23 00:38:47;;;;;;;;;;;16.60;94.00;;;;;;5091971;28;19916;-79
2023/06/23 00:41:12;;;;;;;;;;;16.60;93.80;;;;;;5108446;28;20359;-79
2023/06/23 00:43:38;;;;;;;;;;;16.60;93.90;;;;;;5116474;28;19923;-79
2023/06/23 00:46:15;;;;;;;;;;;16.60;93.70;;;;;;5115951;28;19930;-80
2023/06/23 00:48:41;;;;;;;;;;;16.60;93.70;;;;;;5096984;28;20294;-79
2023/06/23 00:51:06;;;;;;;;;;;16.50;93.70;;;;;;5093719;28;20002;-80
2023/06/23 00:53:32;;;;;;;;;;;16.60;93.60;;;;;;5116312;28;19908;-78
2023/06/23 00:55:59;;;;;;;;;;;16.50;93.80;;;;;;5108929;28;19947;-80
2023/06/23 00:58:25;;;;;;;;;;;16.50;93.90;;;;;;5090841;28;20421;-80
2023/06/23 01:00:51;;;;;;;;;;;16.40;93.70;;;;;;5110675;28;20363;-79
2023/06/23 01:03:16;;;;;;;;;;;16.50;93.80;;;;;;5094644;28;19919;-78
2023/06/23 01:05:42;;;;;;;;;;;16.40;93.70;;;;;;5114373;28;19923;-81
2023/06/23 01:08:20;;;;;;;;;;;16.40;93.80;;;;;;5116724;28;20461;-81
2023/06/23 01:10:56;;;;;;;;;;;16.40;93.80;;;;;;5087694;28;19973;-79
2023/06/23 01:13:37;;;;;;;;;;;16.40;93.50;;;;;;5094538;28;19912;-80
2023/06/23 01:16:09;;;;;;;;;;;16.30;93.30;;;;;;5092973;28;20030;-80
2023/06/23 01:18:38;;;;;;;;;;;16.30;93.40;;;;;;5108461;28;19936;-79
2023/06/23 01:21:06;;;;;;;;;;;16.30;93.50;;;;;;5115375;28;19922;-81
2023/06/23 01:23:50;;;;;;;;;;;16.20;93.70;;;;;;5116432;28;19912;-81
2023/06/23 01:26:29;;;;;;;;;;;16.20;93.70;;;;;;5087540;28;19912;-81
2023/06/23 01:28:57;;;;;;;;;;;16.30;94.10;;;;;;5114739;28;20580;-80
2023/06/23 01:31:31;;;;;;;;;;;16.30;94.00;;;;;;5095730;28;19918;-82
2023/06/23 01:34:02;;;;;;;;;;;16.30;93.80;;;;;;5097344;28;19919;-82
2023/06/23 01:36:32;;;;;;;;;;;16.20;93.90;;;;;;5097510;28;20359;-80
2023/06/23 01:39:00;;;;;;;;;;;16.20;94.00;;;;;;5091554;28;19918;-81
2023/06/23 01:41:28;;;;;;;;;;;16.30;93.70;;;;;;5093646;28;20469;-81
2023/06/23 01:43:55;;;;;;;;;;;16.20;94.00;;;;;;5114447;28;19943;-80
2023/06/23 01:46:25;;;;;;;;;;;16.30;94.10;;;;;;5095157;28;19920;-82
2023/06/23 01:48:54;;;;;;;;;;;16.30;94.00;;;;;;5097286;28;19916;-81
2023/06/23 01:51:20;;;;;;;;;;;16.30;93.80;;;;;;5114064;28;20015;-82
2023/06/23 01:53:47;;;;;;;;;;;16.20;93.80;;;;;;5095594;28;20042;-82
2023/06/23 01:56:13;;;;;;;;;;;16.20;93.90;;;;;;5113767;28;20032;-81
2023/06/23 01:58:39;;;;;;;;;;;16.20;93.90;;;;;;5095925;28;19993;-78
2023/06/23 02:01:05;;;;;;;;;;;16.20;94.20;;;;;;5095503;28;19920;-81
2023/06/23 02:03:31;;;;;;;;;;;16.30;94.10;;;;;;5097373;28;19919;-79
2023/06/23 02:05:57;;;;;;;;;;;16.30;94.00;;;;;;5112172;28;19908;-81
2023/06/23 02:08:23;;;;;;;;;;;16.30;94.00;;;;;;5096299;28;19960;-79
2023/06/23 02:10:50;;;;;;;;;;;16.40;93.90;;;;;;5094065;28;20385;-79
2023/06/23 02:13:16;;;;;;;;;;;16.30;94.00;;;;;;5116018;28;20042;-82
2023/06/23 02:15:42;;;;;;;;;;;16.30;94.20;;;;;;5097768;28;20255;-80
2023/06/23 02:18:09;;;;;;;;;;;16.40;94.30;;;;;;5108001;28;19912;-80
2023/06/23 02:20:36;;;;;;;;;;;16.30;94.00;;;;;;5116687;28;19911;-81
2023/06/23 02:23:01;;;;;;;;;;;16.40;93.70;;;;;;5096926;28;19967;-78
2023/06/23 02:25:27;;;;;;;;;;;16.30;93.70;;;;;;5111668;28;19912;-81
2023/06/23 02:27:53;;;;;;;;;;;16.30;94.00;;;;;;5098104;28;19912;-81
2023/06/23 02:30:19;;;;;;;;;;;16.40;93.80;;;;;;5120324;28;19971;-80
2023/06/23 02:32:45;;;;;;;;;;;16.40;93.90;;;;;;5100954;28;20399;-80
2023/06/23 02:35:13;;;;;;;;;;;16.40;94.00;;;;;;5108749;28;19918;-80
2023/06/23 02:37:40;;;;;;;;;;;16.40;94.20;;;;;;5118241;28;19915;-80
2023/06/23 02:40:11;;;;;;;;;;;16.50;94.10;;;;;;5111854;28;19915;-78
2023/06/23 02:42:39;;;;;;;;;;;16.40;94.00;;;;;;5134868;28;19916;-79
2023/06/23 02:45:08;;;;;;;;;;;16.50;94.00;;;;;;5129195;28;19919;-81
2023/06/23 02:47:35;;;;;;;;;;;16.40;94.20;;;;;;5117821;28;20318;-82
2023/06/23 02:50:02;;;;;;;;;;;16.50;94.10;;;;;;5098874;28;19912;-82
2023/06/23 02:52:29;;;;;;;;;;;16.50;94.00;;;;;;5098806;28;19955;-79
2023/06/23 02:54:56;;;;;;;;;;;16.50;94.20;;;;;;5091958;28;19916;-78
2023/06/23 02:57:22;;;;;;;;;;;16.50;94.10;;;;;;5091773;28;19968;-80
2023/06/23 02:59:49;;;;;;;;;;;16.60;94.10;;;;;;5114051;28;19994;-80
2023/06/23 03:02:16;;;;;;;;;;;16.60;93.90;;;;;;5096344;28;19919;-80
2023/06/23 03:04:45;;;;;;;;;;;16.60;93.70;;;;;;5111889;28;21342;-80
2023/06/23 03:07:10;;;;;;;;;;;16.60;93.40;;;;;;5093144;28;19962;-80
2023/06/23 03:09:36;;;;;;;;;;;16.50;93.40;;;;;;5096596;28;19939;-80
2023/06/23 03:12:01;;;;;;;;;;;16.50;93.50;;;;;;5094796;28;19964;-80
2023/06/23 03:14:27;;;;;;;;;;;16.50;93.40;;;;;;5093880;28;19916;-80
2023/06/23 03:16:59;;;;;;;;;;;16.50;93.40;;;;;;5082632;28;19964;-80
2023/06/23 03:19:30;;;;;;;;;;;16.50;93.60;;;;;;5084547;28;20288;-80
2023/06/23 03:22:07;;;;;;;;;;;16.60;93.20;;;;;;5092456;28;19920;-80
2023/06/23 03:24:36;;;;;;;;;;;16.50;93.40;;;;;;5095520;28;19943;-81
2023/06/23 03:27:05;;;;;;;;;;;16.50;93.40;;;;;;5118212;28;19911;-81
2023/06/23 03:29:32;;;;;;;;;;;16.50;93.60;;;;;;5097268;28;19916;-81
2023/06/23 03:32:01;;;;;;;;;;;16.50;93.40;;;;;;5078242;28;20588;-80
2023/06/23 03:34:28;;;;;;;;;;;16.50;93.50;;;;;;5113963;28;20006;-81
2023/06/23 03:36:56;;;;;;;;;;;16.50;93.80;;;;;;5116718;28;19915;-80
2023/06/23 03:39:24;;;;;;;;;;;16.50;93.50;;;;;;5099169;28;20010;-81
2023/06/23 03:41:50;;;;;;;;;;;16.50;93.90;;;;;;5097975;28;19923;-82
2023/06/23 03:44:33;;;;;;;;;;;16.50;94.00;;;;;;5118375;28;20704;-81
2023/06/23 03:47:00;;;;;;;;;;;16.50;93.90;;;;;;5099226;28;19916;-81
2023/06/23 03:49:28;;;;;;;;;;;16.50;93.60;;;;;;5095734;28;19915;-81
2023/06/23 03:51:56;;;;;;;;;;;16.50;93.90;;;;;;5113365;28;19908;-80
2023/06/23 03:54:22;;;;;;;;;;;16.50;93.80;;;;;;5109017;28;19970;-78
2023/06/23 03:56:48;;;;;;;;;;;16.50;93.80;;;;;;5093885;28;19916;-80
2023/06/23 03:59:15;;;;;;;;;;;16.60;93.60;;;;;;5114637;28;19912;-81
2023/06/23 04:01:41;;;;;;;;;;;16.50;93.50;;;;;;5089224;28;19920;-78
2023/06/23 04:04:08;;;;;;;;;;;16.50;93.60;;;;;;5091108;28;19972;-80
2023/06/23 04:06:35;;;;;;;;;;;16.50;93.70;;;;;;5110260;28;20359;-79
2023/06/23 04:09:01;;;;;;;;;;;16.60;93.60;;;;;;5113447;28;19912;-79
2023/06/23 04:11:27;;;;;;;;;;;16.50;93.60;;;;;;5095990;28;20502;-81
2023/06/23 04:13:55;;;;;;;;;;;16.60;93.80;;;;;;5092855;28;19911;-80
2023/06/23 04:16:20;;;;;;;;;;;16.60;93.70;;;;;;5112159;28;20336;-80
2023/06/23 04:18:47;;;;;;;;;;;16.60;93.60;;;;;;5090780;28;19964;-80
2023/06/23 04:21:13;;;;;;;;;;;16.60;93.50;;;;;;5097196;28;20021;-80
2023/06/23 04:23:40;;;;;;;;;;;16.60;93.70;;;;;;5095950;28;19915;-81
2023/06/23 04:26:08;;;;;;;;;;;16.60;93.60;;;;;;5113233;28;19919;-80
2023/06/23 04:28:34;;;;;;;;;;;16.60;93.50;;;;;;5095260;28;19912;-79
2023/06/23 04:31:02;;;;;;;;;;;16.60;93.40;;;;;;5094135;28;20403;-80
2023/06/23 04:33:27;;;;;;;;;;;16.60;93.90;;;;;;5090397;28;19968;-80
2023/06/23 04:35:59;;;;;;;;;;;16.60;93.90;;;;;;5095487;28;20509;-80
2023/06/23 04:38:25;;;;;;;;;;;16.60;93.60;;;;;;5097515;28;19918;-81
2023/06/23 04:40:52;;;;;;;;;;;16.60;93.40;;;;;;5097707;28;20010;-82
2023/06/23 04:43:37;;;;;;;;;;;16.60;93.30;;;;;;5099243;28;19916;-80
2023/06/23 04:46:05;;;;;;;;;;;16.80;93.60;;;;;;5094930;28;19920;-81
2023/06/23 04:48:35;;;;;;;;;;;16.80;93.00;;;;;;5113214;28;20363;-80
2023/06/23 04:51:01;;;;;;;;;;;16.80;92.80;;;;;;5110619;28;19912;-79
2023/06/23 04:53:30;;;;;;;;;;;16.70;92.70;;;;;;5094711;28;19912;-81
2023/06/23 04:56:00;;;;;;;;;;;16.70;93.30;;;;;;5110567;28;19945;-79
2023/06/23 04:58:28;;;;;;;;;;;16.80;93.40;;;;;;5094912;28;20011;-79
2023/06/23 05:00:54;;;;;;;;;;;16.80;92.80;;;;;;5110801;28;19922;-81
2023/06/23 05:03:20;;;;;;;;;;;16.80;93.10;;;;;;5110009;28;19922;-80
2023/06/23 05:05:46;;;;;;;;;;;16.90;93.30;;;;;;5093685;28;20389;-82
2023/06/23 05:08:12;;;;;;;;;;;16.80;92.90;;;;;;5108321;28;20002;-81
2023/06/23 05:10:39;;;;;;;;;;;16.90;92.90;;;;;;5113611;28;20379;-80
2023/06/23 05:13:05;;;;;;;;;;;16.90;92.50;;;;;;5114414;28;19911;-81
2023/06/23 05:15:30;;;;;;;;;;;16.90;92.60;;;;;;5113585;28;19951;-81
2023/06/23 05:17:58;;;;;;;;;;;16.90;92.60;;;;;;5095940;28;19908;-81
2023/06/23 05:20:25;;;;;;;;;;;16.80;92.70;;;;;;5114079;28;19912;-81
2023/06/23 05:22:53;;;;;;;;;;;16.90;92.70;;;;;;5092469;28;20718;-82
2023/06/23 05:25:19;;;;;;;;;;;16.90;92.70;;;;;;5096481;28;20363;-81
2023/06/23 05:27:45;;;;;;;;;;;16.90;92.90;;;;;;5112565;28;19916;-81
2023/06/23 05:30:15;;;;;;;;;;;17.00;92.60;;;;;;5114393;28;19908;-81
2023/06/23 05:32:41;;;;;;;;;;;16.90;92.50;;;;;;5091196;28;19955;-81
2023/06/23 05:35:08;;;;;;;;;;;17.00;92.40;;;;;;5096017;28;19915;-81
2023/06/23 05:37:34;;;;;;;;;;;17.00;92.20;;;;;;5092120;28;19927;-81
2023/06/23 05:40:04;;;;;;;;;;;17.00;92.60;;;;;;5110969;28;19981;-79
2023/06/23 05:42:32;;;;;;;;;;;17.00;92.50;;;;;;5095832;28;19916;-80
2023/06/23 05:44:59;;;;;;;;;;;17.10;92.20;;;;;;5114030;28;19919;-80
2023/06/23 05:47:26;;;;;;;;;;;17.10;92.30;;;;;;5097778;28;20388;-79
2023/06/23 05:49:54;;;;;;;;;;;17.10;92.30;;;;;;5115022;28;19912;-81
2023/06/23 05:52:21;;;;;;;;;;;17.10;91.80;;;;;;5110833;28;19912;-81
2023/06/23 05:54:47;;;;;;;;;;;17.10;91.90;;;;;;5098022;28;19929;-80
2023/06/23 05:57:19;;;;;;;;;;;17.10;91.90;;;;;;5092263;28;19916;-80
2023/06/23 05:59:46;;;;;;;;;;;17.10;92.00;;;;;;5090927;28;19920;-78
2023/06/23 06:02:20;;;;;;;;;;;17.10;91.80;;;;;;5088539;28;20324;-80
2023/06/23 06:04:48;;;;;;;;;;;17.20;92.00;;;;;;5111203;28;19916;-80
2023/06/23 06:07:14;;;;;;;;;;;17.30;91.90;;;;;;5110207;28;19938;-81
2023/06/23 06:09:41;;;;;;;;;;;17.40;91.30;;;;;;5097268;28;19947;-81
2023/06/23 06:12:07;;;;;;;;;;;17.50;91.20;;;;;;5112990;28;20374;-86
2023/06/23 06:14:34;;;;;;;;;;;17.50;90.90;;;;;;5093315;28;19911;-87
2023/06/23 06:17:00;;;;;;;;;;;17.60;90.90;;;;;;5085892;28;20346;-88
2023/06/23 06:19:27;;;;;;;;;;;17.60;91.30;;;;;;5093033;28;19939;-87
2023/06/23 06:21:54;;;;;;;;;;;17.80;91.10;;;;;;5093795;28;19916;-85
2023/06/23 06:24:23;;;;;;;;;;;17.70;90.80;;;;;;5090035;28;19915;-85
2023/06/23 06:26:49;;;;;;;;;;;17.80;91.20;;;;;;5088715;28;20044;-86
2023/06/23 06:29:17;;;;;;;;;;;17.80;90.30;;;;;;5089801;28;20058;-88
2023/06/23 06:31:45;;;;;;;;;;;17.80;90.70;;;;;;5096486;28;19908;-86
2023/06/23 06:34:11;;;;;;;;;;;17.80;90.40;;;;;;5099613;28;19934;-83
2023/06/23 06:36:37;;;;;;;;;;;17.70;90.70;;;;;;5093719;28;19937;-84
2023/06/23 06:39:03;;;;;;;;;;;17.80;90.80;;;;;;5111429;28;19917;-82
2023/06/23 06:41:34;;;;;;;;;;;17.70;90.80;;;;;;5107595;28;19916;-83
2023/06/23 06:43:59;;;;;;;;;;;17.80;90.70;;;;;;5087521;28;20375;-83
2023/06/23 06:46:26;;;;;;;;;;;17.80;90.50;;;;;;5106466;28;19941;-84
2023/06/23 06:48:52;;;;;;;;;;;17.80;90.60;;;;;;5093292;28;19912;-84
2023/06/23 06:51:18;;;;;;;;;;;17.90;90.30;;;;;;5090419;28;20752;-84
2023/06/23 06:53:45;;;;;;;;;;;17.90;90.00;;;;;;5089727;28;19911;-85
2023/06/23 06:56:10;;;;;;;;;;;18.00;90.20;;;;;;5109984;28;19964;-84
2023/06/23 06:58:36;;;;;;;;;;;18.10;89.40;;;;;;5093063;28;19911;-86
2023/06/23 07:01:03;;;;;;;;;;;18.20;89.10;;;;;;5091191;28;19924;-83
2023/06/23 07:03:29;;;;;;;;;;;18.10;89.80;;;;;;5090160;28;19926;-84
2023/06/23 07:05:54;;;;;;;;;;;18.20;89.70;;;;;;5106649;28;20008;-81
2023/06/23 07:08:20;;;;;;;;;;;18.30;88.70;;;;;;5097376;28;19916;-82
2023/06/23 07:10:45;;;;;;;;;;;18.30;89.10;;;;;;5095815;28;20006;-79
2023/06/23 07:13:11;;;;;;;;;;;18.30;89.30;;;;;;5090305;28;19912;-80
2023/06/23 07:15:36;;;;;;;;;;;18.30;89.00;;;;;;5101319;28;19918;-81
2023/06/23 07:18:02;;;;;;;;;;;18.50;88.40;;;;;;5100979;28;19912;-80
2023/06/23 07:20:27;;;;;;;;;;;18.60;88.60;;;;;;5114036;28;19919;-79
2023/06/23 07:22:53;;;;;;;;;;;18.80;88.10;;;;;;5113203;28;19981;-88
2023/06/23 07:25:18;;;;;;;;;;;18.90;87.20;;;;;;5110431;28;20427;-83
2023/06/23 07:27:48;;;;;;;;;;;18.90;86.70;;;;;;5106412;28;19916;-80
2023/06/23 07:30:13;;;;;;;;;;;19.00;85.80;;;;;;5114708;28;19911;-82
2023/06/23 07:32:39;;;;;;;;;;;18.90;85.50;;;;;;5095099;28;19919;-81
2023/06/23 07:35:06;;;;;;;;;;;18.80;86.30;;;;;;5102449;28;19995;-82
2023/06/23 07:37:31;;;;;;;;;;;18.90;86.20;;;;;;5089565;28;20340;-81
2023/06/23 07:39:57;;;;;;;;;;;19.10;86.60;;;;;;5095005;28;20007;-80
2023/06/23 07:42:23;;;;;;;;;;;19.00;86.40;;;;;;5112392;28;20286;-80
2023/06/23 07:44:49;;;;;;;;;;;18.90;86.00;;;;;;5092057;28;19912;-81
2023/06/23 07:47:14;;;;;;;;;;;18.90;86.40;;;;;;5096754;28;19923;-82
2023/06/23 07:49:40;;;;;;;;;;;18.90;85.40;;;;;;5097750;28;20066;-82
2023/06/23 07:52:05;;;;;;;;;;;18.80;85.50;;;;;;5115223;28;19912;-81
2023/06/23 07:54:31;;;;;;;;;;;18.80;85.30;;;;;;5106618;28;20694;-82
2023/06/23 07:56:57;;;;;;;;;;;18.70;86.00;;;;;;5098330;28;19950;-82
2023/06/23 07:59:25;;;;;;;;;;;18.70;86.00;;;;;;5093409;28;20359;-82
2023/06/23 08:01:50;;;;;;;;;;;18.80;85.30;;;;;;5091121;28;19931;-81
2023/06/23 08:04:16;;;;;;;;;;;18.80;84.80;;;;;;5114971;28;19916;-81
2023/06/23 08:06:41;;;;;;;;;;;18.80;85.00;;;;;;5092434;28;19918;-82
2023/06/23 08:09:07;;;;;;;;;;;19.00;84.10;;;;;;5095016;28;19934;-81
2023/06/23 08:11:32;;;;;;;;;;;19.20;81.90;;;;;;5102614;28;19933;-85
2023/06/23 08:14:00;;;;;;;;;;;19.30;82.50;;;;;;5106867;28;19919;-83
2023/06/23 08:16:26;;;;;;;;;;;19.40;81.40;;;;;;5098474;28;20010;-83
2023/06/23 08:18:52;;;;;;;;;;;19.50;79.70;;;;;;5097313;28;19954;-83
2023/06/23 08:21:17;;;;;;;;;;;19.50;81.10;;;;;;5113549;28;19974;-83
2023/06/23 08:23:46;;;;;;;;;;;19.70;79.20;;;;;;5116391;28;20371;-83
2023/06/23 08:26:12;;;;;;;;;;;19.80;79.00;;;;;;5097632;28;20006;-82
2023/06/23 08:28:38;;;;;;;;;;;19.80;79.60;;;;;;5095393;28;19950;-82
2023/06/23 08:31:03;;;;;;;;;;;19.80;78.30;;;;;;5094248;28;19912;-83
2023/06/23 08:33:31;;;;;;;;;;;19.80;79.60;;;;;;5106993;28;19912;-84
2023/06/23 08:35:57;;;;;;;;;;;19.70;79.30;;;;;;5114443;28;19912;-83
2023/06/23 08:38:24;;;;;;;;;;;19.70;79.50;;;;;;5097441;28;20430;-82
2023/06/23 08:40:56;;;;;;;;;;;19.60;78.60;;;;;;5095714;28;20025;-82
2023/06/23 08:43:25;;;;;;;;;;;19.60;78.20;;;;;;5113944;28;19912;-82
2023/06/23 08:45:58;;;;;;;;;;;19.70;78.00;;;;;;5098519;28;19927;-88
2023/06/23 08:48:27;;;;;;;;;;;19.80;78.30;;;;;;5110358;28;19916;-83
2023/06/23 08:50:54;;;;;;;;;;;19.90;79.00;;;;;;5092365;28;19916;-84
2023/06/23 08:53:21;;;;;;;;;;;20.00;76.00;;;;;;5112358;28;19920;-84
2023/06/23 08:55:47;;;;;;;;;;;20.10;76.70;;;;;;5091128;28;19912;-82
2023/06/23 08:58:13;;;;;;;;;;;20.10;75.10;;;;;;5105907;28;19924;-82
2023/06/23 09:00:38;;;;;;;;;;;20.10;75.70;;;;;;5094319;28;19912;-84
2023/06/23 09:03:05;;;;;;;;;;;20.20;74.40;;;;;;5111201;28;19915;-86
2023/06/23 09:05:30;;;;;;;;;;;20.20;73.70;;;;;;5098205;28;20271;-82
2023/06/23 09:07:56;;;;;;;;;;;20.30;75.20;;;;;;5107382;28;19916;-80
2023/06/23 09:10:21;;;;;;;;;;;20.30;71.00;;;;;;5101343;28;20393;-81
2023/06/23 09:13:00;;;;;;;;;;;20.50;70.60;;;;;;5099526;28;20329;-80
2023/06/23 09:15:26;;;;;;;;;;;20.40;71.40;;;;;;5111555;28;19951;-82
2023/06/23 09:17:52;;;;;;;;;;;20.30;71.70;;;;;;5101565;28;19916;-80
2023/06/23 09:20:17;;;;;;;;;;;20.50;71.60;;;;;;5097587;28;19919;-80
2023/06/23 09:22:44;;;;;;;;;;;20.70;69.90;;;;;;5097542;28;20379;-81
2023/06/23 09:25:09;;;;;;;;;;;20.70;69.30;;;;;;5097629;28;19912;-81
2023/06/23 09:27:39;;;;;;;;;;;20.80;71.30;;;;;;5114254;28;19960;-80
2023/06/23 09:30:05;;;;;;;;;;;20.90;70.10;;;;;;5099984;28;19923;-81
2023/06/23 09:32:32;;;;;;;;;;;21.00;69.80;;;;;;5112117;28;19916;-81
2023/06/23 09:34:57;;;;;;;;;;;20.90;72.00;;;;;;5111649;28;19923;-81
2023/06/23 09:37:23;;;;;;;;;;;21.10;69.80;;;;;;5093413;28;19908;-82
2023/06/23 09:39:48;;;;;;;;;;;21.20;68.80;;;;;;5107753;28;20389;-81
2023/06/23 09:42:14;;;;;;;;;;;21.10;70.60;;;;;;5088656;28;19937;-82
2023/06/23 09:44:45;;;;;;;;;;;21.20;68.20;;;;;;5091913;28;19912;-80
2023/06/23 09:49:45;;;;;;;;;;;21.40;66.50;;;;;;5035482;28;19984;-82
2023/06/23 09:52:21;;;;;;;;;;;21.40;67.90;;;;;;5104060;23;19925;-84
2023/06/23 09:54:46;;;;;;;;;;;21.70;66.50;;;;;;5041676;28;19913;-82
2023/06/23 09:57:18;;;;;;;;;;;21.80;67.20;;;;;;5043883;28;20004;-83
2023/06/23 09:59:45;;;;;;;;;;;21.80;67.40;;;;;;5021088;28;19909;-82
2023/06/23 10:02:25;;;;;;;;;;;21.90;66.80;;;;;;5049864;23;19925;-87
2023/06/23 10:05:20;;;;;;;;;;;21.60;68.80;;;;;;5075660;28;19936;-87
2023/06/23 10:08:05;;;;;;;;;;;21.70;67.50;;;;;;5070150;28;19920;-86
2023/06/23 10:10:33;;;;;;;;;;;21.90;67.10;;;;;;5058983;28;19919;-86
2023/06/23 10:13:11;;;;;;;;;;;22.00;68.30;;;;;;5062354;28;19919;-86
2023/06/23 10:15:45;;;;;;;;;;;21.90;69.10;;;;;;5071279;28;20667;-89
2023/06/23 10:21:11;;;;;;;;;;;22.30;65.30;;;;;;5051398;28;19943;-88
2023/06/23 10:24:04;;;;;;;;;;;22.30;66.70;;;;;;5067338;28;19917;-92
2023/06/23 10:26:37;;;;;;;;;;;22.10;67.10;;;;;;5067004;28;19913;-89
2023/06/23 10:42:45;;;;;;;;;;;22.60;66.50;;;;;;4966692;28;19926;-87
2023/06/23 10:45:11;;;;;;;;;;;22.50;67.00;;;;;;4948740;28;19922;-86
2023/06/23 10:47:36;;;;;;;;;;;22.40;68.00;;;;;;4994347;28;19981;-89
2023/06/23 10:50:02;;;;;;;;;;;22.20;68.00;;;;;;4946326;28;20378;-85
2023/06/23 10:52:28;;;;;;;;;;;22.30;68.30;;;;;;4953627;28;19914;-81
2023/06/23 10:54:53;;;;;;;;;;;22.50;66.00;;;;;;4967483;28;19914;-82
2023/06/23 10:57:19;;;;;;;;;;;22.40;67.40;;;;;;4994780;28;19961;-83
2023/06/23 10:59:57;;;;;;;;;;;22.60;65.70;;;;;;4976184;28;19972;-83
2023/06/23 11:02:23;;;;;;;;;;;22.80;67.80;;;;;;4955940;28;19978;-82
2023/06/23 11:04:53;;;;;;;;;;;22.70;67.90;;;;;;4955995;28;19921;-83
2023/06/23 11:07:18;;;;;;;;;;;22.60;65.70;;;;;;4975054;28;19931;-80
2023/06/23 11:10:03;;;;;;;;;;;22.60;66.30;;;;;;5022988;28;19922;-78
2023/06/23 11:12:42;;;;;;;;;;;22.60;65.20;;;;;;4994092;28;19913;-83
2023/06/23 11:15:20;;;;;;;;;;;22.60;65.70;;;;;;4965706;28;19944;-83
2023/06/23 11:17:49;;;;;;;;;;;22.60;64.00;;;;;;4978765;28;20502;-82
2023/06/23 11:20:24;;;;;;;;;;;22.80;66.30;;;;;;4970975;28;19932;-83
2023/06/23 11:23:06;;;;;;;;;;;22.90;64.60;;;;;;5053719;28;19997;-85
2023/06/23 11:25:33;;;;;;;;;;;23.00;64.50;;;;;;4956085;28;19949;-82
2023/06/23 11:28:17;;;;;;;;;;;23.10;64.00;;;;;;4973767;28;19967;-82
2023/06/23 11:31:01;;;;;;;;;;;23.10;58.80;;;;;;5039993;28;20005;-83
2023/06/23 11:33:31;;;;;;;;;;;23.20;59.90;;;;;;4981436;28;19912;-84
2023/06/23 11:36:01;;;;;;;;;;;23.10;59.30;;;;;;5017662;28;19921;-84
2023/06/23 11:38:29;;;;;;;;;;;23.30;61.10;;;;;;5059357;28;19912;-84
2023/06/23 11:40:56;;;;;;;;;;;23.20;61.10;;;;;;5052192;28;19946;-81
2023/06/23 11:43:22;;;;;;;;;;;23.20;59.20;;;;;;4982282;28;19918;-84
2023/06/23 11:45:51;;;;;;;;;;;23.00;59.80;;;;;;5012332;28;19916;-85
2023/06/23 11:48:16;;;;;;;;;;;23.10;61.50;;;;;;4961399;28;19917;-82
2023/06/23 11:50:42;;;;;;;;;;;23.10;62.20;;;;;;4956556;28;19915;-82
2023/06/23 11:53:09;;;;;;;;;;;23.00;61.00;;;;;;4991687;28;19914;-84
2023/06/23 11:55:34;;;;;;;;;;;23.10;59.60;;;;;;5010381;28;19914;-80
2023/06/23 11:58:01;;;;;;;;;;;23.40;59.80;;;;;;4955327;28;19918;-83
2023/06/23 12:00:26;;;;;;;;;;;23.40;59.30;;;;;;5020093;28;19909;-85
2023/06/23 12:02:52;;;;;;;;;;;23.30;57.90;;;;;;4972058;28;19981;-83
2023/06/23 12:05:17;;;;;;;;;;;23.30;59.10;;;;;;5002312;28;19914;-84
2023/06/23 12:07:42;;;;;;;;;;;23.20;59.30;;;;;;4959845;28;20424;-81
2023/06/23 12:10:08;;;;;;;;;;;23.10;59.50;;;;;;5019138;28;19934;-84
2023/06/23 12:15:02;;;;;;;;;;;23.20;58.30;;;;;;5069641;28;19924;-84
2023/06/23 12:17:30;;;;;;;;;;;23.40;58.10;;;;;;5073312;28;19973;-84
2023/06/23 12:19:57;;;;;;;;;;;23.70;56.90;;;;;;5068188;28;19913;-82
2023/06/23 12:22:23;;;;;;;;;;;24.00;55.80;;;;;;5058373;28;19916;-82
2023/06/23 12:24:49;;;;;;;;;;;23.90;55.80;;;;;;5066061;28;19912;-83
2023/06/23 12:27:15;;;;;;;;;;;24.00;54.30;;;;;;5066118;28;19913;-82
2023/06/23 12:29:40;;;;;;;;;;;24.00;54.00;;;;;;5088187;28;19987;-81
2023/06/23 12:32:07;;;;;;;;;;;24.00;54.80;;;;;;5080595;28;20229;-82
2023/06/23 12:34:41;;;;;;;;;;;24.00;54.40;;;;;;5073080;28;19939;-78
2023/06/23 12:37:10;;;;;;;;;;;24.00;54.20;;;;;;5072752;28;19923;-83
2023/06/23 12:39:35;;;;;;;;;;;24.00;53.60;;;;;;5065245;28;19920;-83
2023/06/23 12:42:01;;;;;;;;;;;24.00;53.50;;;;;;5078631;28;20556;-84
2023/06/23 12:44:27;;;;;;;;;;;23.90;55.70;;;;;;5062195;28;19939;-83
2023/06/23 12:46:54;;;;;;;;;;;24.00;53.90;;;;;;5078225;28;19915;-83
2023/06/23 12:49:21;;;;;;;;;;;24.10;50.90;;;;;;5073292;28;19960;-82
2023/06/23 12:51:47;;;;;;;;;;;24.10;53.50;;;;;;5059370;28;19912;-81
2023/06/23 12:54:12;;;;;;;;;;;24.10;52.60;;;;;;5077287;28;20058;-78
2023/06/23 12:56:38;;;;;;;;;;;24.00;55.00;;;;;;5071045;28;19916;-82
2023/06/23 12:59:03;;;;;;;;;;;23.90;55.50;;;;;;5058452;28;20385;-82
2023/06/23 13:01:29;;;;;;;;;;;24.00;51.70;;;;;;5074815;28;19920;-81
2023/06/23 13:03:54;;;;;;;;;;;24.10;52.30;;;;;;5077426;28;20016;-82
2023/06/23 13:06:20;;;;;;;;;;;24.10;52.10;;;;;;5063082;28;19976;-84
2023/06/23 13:08:46;;;;;;;;;;;24.10;51.70;;;;;;5074809;28;20014;-84
2023/06/23 13:11:12;;;;;;;;;;;24.00;52.00;;;;;;5056789;28;20352;-81
2023/06/23 13:13:37;;;;;;;;;;;24.00;52.60;;;;;;5053234;28;19923;-81
2023/06/23 13:16:03;;;;;;;;;;;24.10;50.40;;;;;;5060262;28;20279;-81
2023/06/23 13:18:28;;;;;;;;;;;24.10;51.90;;;;;;5071218;28;19912;-82
2023/06/23 13:20:54;;;;;;;;;;;23.90;49.70;;;;;;5055155;28;19920;-82
2023/06/23 13:23:19;;;;;;;;;;;23.90;50.70;;;;;;5057759;28;19940;-84
2023/06/23 13:25:45;;;;;;;;;;;23.80;51.40;;;;;;5074488;28;19909;-83
2023/06/23 13:28:10;;;;;;;;;;;23.90;49.20;;;;;;5055681;28;19956;-82
2023/06/23 13:30:36;;;;;;;;;;;24.00;48.80;;;;;;5054776;28;19920;-82
2023/06/23 13:33:01;;;;;;;;;;;24.00;49.40;;;;;;5073979;28;19947;-83
2023/06/23 13:35:27;;;;;;;;;;;23.80;51.20;;;;;;5055999;28;19939;-86
2023/06/23 13:37:55;;;;;;;;;;;23.60;51.60;;;;;;5056152;28;19931;-83
2023/06/23 13:40:21;;;;;;;;;;;23.60;51.60;;;;;;5072135;28;19912;-82
2023/06/23 13:42:46;;;;;;;;;;;23.80;52.20;;;;;;5053459;28;19928;-81
2023/06/23 13:45:12;;;;;;;;;;;23.80;53.80;;;;;;5071586;28;19917;-84
2023/06/23 13:47:38;;;;;;;;;;;23.90;51.30;;;;;;5042336;28;19913;-83
2023/06/23 13:50:11;;;;;;;;;;;23.80;53.10;;;;;;5055175;28;19935;-84
2023/06/23 13:52:37;;;;;;;;;;;23.80;53.20;;;;;;5072207;28;19917;-83
2023/06/23 13:55:03;;;;;;;;;;;23.80;52.20;;;;;;5072732;28;20287;-80
2023/06/23 13:57:29;;;;;;;;;;;23.90;53.40;;;;;;5054949;28;19952;-81
2023/06/23 13:59:54;;;;;;;;;;;24.00;52.30;;;;;;5054594;28;19991;-83
2023/06/23 14:02:20;;;;;;;;;;;24.10;52.70;;;;;;5055199;28;19936;-83
2023/06/23 14:04:48;;;;;;;;;;;24.20;53.10;;;;;;5073489;28;20356;-89
2023/06/23 14:07:13;;;;;;;;;;;24.20;54.50;;;;;;5073350;28;19913;-84
2023/06/23 14:09:39;;;;;;;;;;;24.30;53.80;;;;;;5074324;28;19923;-83
2023/06/23 14:12:05;;;;;;;;;;;24.30;54.60;;;;;;5073322;28;20397;-80
2023/06/23 14:14:31;;;;;;;;;;;24.50;52.40;;;;;;5055669;28;19950;-84
2023/06/23 14:16:56;;;;;;;;;;;24.60;53.00;;;;;;5057963;28;19978;-83
2023/06/23 14:19:22;;;;;;;;;;;24.50;54.40;;;;;;5055063;28;19935;-84
2023/06/23 14:21:47;;;;;;;;;;;24.50;54.90;;;;;;5051490;28;19925;-82
2023/06/23 14:24:13;;;;;;;;;;;24.40;54.60;;;;;;5067496;28;20003;-82
2023/06/23 14:26:38;;;;;;;;;;;24.50;55.20;;;;;;5073668;28;19939;-82
2023/06/23 14:29:04;;;;;;;;;;;24.70;54.00;;;;;;5071244;28;19995;-83
2023/06/23 14:31:29;;;;;;;;;;;24.80;55.50;;;;;;5053023;28;19913;-82
2023/06/23 14:33:55;;;;;;;;;;;24.70;55.90;;;;;;5055421;28;19977;-83
2023/06/23 14:36:20;;;;;;;;;;;24.60;55.50;;;;;;5070112;28;20451;-84
2023/06/23 14:38:45;;;;;;;;;;;24.80;54.90;;;;;;5051733;28;19913;-84
2023/06/23 14:41:12;;;;;;;;;;;25.00;53.50;;;;;;5049448;28;19912;-82